Time;durP1;ratioP1;P1;durP2;ratioP2;P2;SDS_P1;SDS_P2;PMS_P1;PMS_P2;Temp;Humidity;BMP_temperature;BMP_pressure;BME280_temperature;BME280_humidity;BME280_pressure;Samples;Min_cycle;Max_cycle;Signal;HPM_P1;HPM_P2
2023/08/26 00:00:54;;;;;;;;;;;;;;;;;;4961206;28;20385;-73
2023/08/26 00:03:19;;;;;;;;;;;;;;;;;;4960245;28;19922;-73
2023/08/26 00:05:45;;;;;;;;;;;;;;;;;;4954901;28;20052;-73
2023/08/26 00:08:10;;;;;;;;;;;;;;;;;;4961878;28;19925;-74
2023/08/26 00:10:36;;;;;;;;;;;;;;;;;;4963190;28;20480;-74
2023/08/26 00:13:01;;;;;;;;;;;;;;;;;;4951849;28;19972;-73
2023/08/26 00:15:27;;;;;;;;;;;;;;;;;;4967923;28;19917;-73
2023/08/26 00:17:52;;;;;;;;;;;;;;;;;;4959333;28;19921;-75
2023/08/26 00:20:21;;;;;;;;;;;;;;;;;;4946879;28;19926;-73
2023/08/26 00:22:46;;;;;;;;;;;;;;;;;;4961678;28;19918;-73
2023/08/26 00:25:12;;;;;;;;;;;;;;;;;;4967050;28;19972;-72
2023/08/26 00:27:38;;;;;;;;;;;;;;;;;;4946840;28;19960;-72
2023/08/26 00:30:03;;;;;;;;;;;;;;;;;;4962281;28;20020;-72
2023/08/26 00:32:29;;;;;;;;;;;;;;;;;;4980160;28;20030;-73
2023/08/26 00:34:54;;;;;;;;;;;;;;;;;;4978977;28;20951;-74
2023/08/26 00:37:19;;;;;;;;;;;;;;;;;;4962074;28;19929;-74
2023/08/26 00:39:45;;;;;;;;;;;;;;;;;;4960729;28;19917;-74
2023/08/26 00:42:10;;;;;;;;;;;;;;;;;;4961620;28;20016;-73
2023/08/26 00:44:36;;;;;;;;;;;;;;;;;;4962286;28;20417;-74
2023/08/26 00:47:02;;;;;;;;;;;;;;;;;;4953309;28;19928;-73
2023/08/26 00:49:27;;;;;;;;;;;;;;;;;;4961698;28;19926;-73
2023/08/26 00:51:55;;;;;;;;;;;;;;;;;;4953537;28;19928;-72
2023/08/26 00:54:20;;;;;;;;;;;;;;;;;;4949512;28;19925;-73
2023/08/26 00:56:46;;;;;;;;;;;;;;;;;;4959007;28;19921;-73
2023/08/26 00:59:14;;;;;;;;;;;;;;;;;;4979964;28;21920;-74
2023/08/26 01:01:39;;;;;;;;;;;;;;;;;;4965707;28;20017;-73
2023/08/26 01:04:05;;;;;;;;;;;;;;;;;;4978417;28;20782;-73
2023/08/26 01:06:31;;;;;;;;;;;;;;;;;;4963449;28;19922;-72
2023/08/26 01:08:56;;;;;;;;;;;;;;;;;;4949570;28;19929;-72
2023/08/26 01:11:22;;;;;;;;;;;;;;;;;;4961193;28;19922;-73
2023/08/26 01:13:48;;;;;;;;;;;;;;;;;;4977412;28;19952;-73
2023/08/26 01:16:13;;;;;;;;;;;;;;;;;;4957952;28;19930;-72
2023/08/26 01:18:38;;;;;;;;;;;;;;;;;;4977202;28;19921;-74
2023/08/26 01:21:04;;;;;;;;;;;;;;;;;;4956328;28;19921;-72
2023/08/26 01:23:29;;;;;;;;;;;;;;;;;;4978323;28;20467;-72
2023/08/26 01:25:55;;;;;;;;;;;;;;;;;;4963003;28;19922;-73
2023/08/26 01:28:20;;;;;;;;;;;;;;;;;;4957337;28;20077;-73
2023/08/26 01:30:48;;;;;;;;;;;;;;;;;;4976812;28;19936;-73
2023/08/26 01:33:13;;;;;;;;;;;;;;;;;;4959709;28;19972;-74
2023/08/26 01:35:39;;;;;;;;;;;;;;;;;;4956964;28;19930;-73
2023/08/26 01:38:04;;;;;;;;;;;;;;;;;;4972711;28;20051;-74
2023/08/26 01:40:29;;;;;;;;;;;;;;;;;;4966214;28;19918;-73
2023/08/26 01:42:55;;;;;;;;;;;;;;;;;;4966484;28;19929;-73
2023/08/26 01:45:20;;;;;;;;;;;;;;;;;;4953926;28;19921;-73
2023/08/26 01:47:46;;;;;;;;;;;;;;;;;;4943519;28;19925;-72
2023/08/26 01:50:11;;;;;;;;;;;;;;;;;;4958199;28;19925;-73
2023/08/26 01:52:37;;;;;;;;;;;;;;;;;;4970280;28;19921;-73
2023/08/26 01:55:04;;;;;;;;;;;;;;;;;;4952617;28;19918;-72
2023/08/26 01:57:29;;;;;;;;;;;;;;;;;;4972680;28;20384;-74
2023/08/26 01:59:54;;;;;;;;;;;;;;;;;;4954056;28;19918;-74
2023/08/26 02:02:21;;;;;;;;;;;;;;;;;;4954055;28;20081;-73
2023/08/26 02:04:46;;;;;;;;;;;;;;;;;;4955724;28;20968;-74
2023/08/26 02:07:11;;;;;;;;;;;;;;;;;;4953634;28;19922;-73
2023/08/26 02:09:37;;;;;;;;;;;;;;;;;;4952115;28;19925;-74
2023/08/26 02:12:02;;;;;;;;;;;;;;;;;;4931587;28;22096;-73
2023/08/26 02:14:28;;;;;;;;;;;;;;;;;;4953445;28;19957;-74
2023/08/26 02:16:54;;;;;;;;;;;;;;;;;;4967689;28;19921;-73
2023/08/26 02:19:19;;;;;;;;;;;;;;;;;;4969945;28;20032;-72
2023/08/26 02:21:44;;;;;;;;;;;;;;;;;;4937754;28;19929;-73
2023/08/26 02:24:10;;;;;;;;;;;;;;;;;;4967521;28;20012;-73
2023/08/26 02:26:35;;;;;;;;;;;;;;;;;;4970631;28;20423;-73
2023/08/26 02:29:00;;;;;;;;;;;;;;;;;;4953189;28;19932;-74
2023/08/26 02:31:32;;;;;;;;;;;;;;;;;;4969839;28;19929;-74
2023/08/26 02:33:57;;;;;;;;;;;;;;;;;;4952828;28;20472;-73
2023/08/26 02:36:22;;;;;;;;;;;;;;;;;;4958473;28;19932;-73
2023/08/26 02:38:48;;;;;;;;;;;;;;;;;;4957467;28;19960;-73
2023/08/26 02:41:13;;;;;;;;;;;;;;;;;;4955872;28;19934;-72
2023/08/26 02:43:38;;;;;;;;;;;;;;;;;;4961207;28;19925;-73
2023/08/26 02:46:04;;;;;;;;;;;;;;;;;;4943274;28;20056;-73
2023/08/26 02:48:29;;;;;;;;;;;;;;;;;;4932713;28;19929;-72
2023/08/26 02:50:55;;;;;;;;;;;;;;;;;;4945483;28;20186;-73
2023/08/26 02:53:20;;;;;;;;;;;;;;;;;;4944643;28;19918;-73
2023/08/26 02:55:45;;;;;;;;;;;;;;;;;;4961060;28;19922;-73
2023/08/26 02:58:11;;;;;;;;;;;;;;;;;;4963101;28;19969;-72
2023/08/26 03:00:36;;;;;;;;;;;;;;;;;;4932008;28;19922;-72
2023/08/26 03:03:02;;;;;;;;;;;;;;;;;;4944342;28;19979;-72
2023/08/26 03:05:29;;;;;;;;;;;;;;;;;;4945294;28;19922;-73
2023/08/26 03:07:54;;;;;;;;;;;;;;;;;;4959107;28;19933;-73
2023/08/26 03:10:19;;;;;;;;;;;;;;;;;;4946348;28;19936;-72
2023/08/26 03:12:45;;;;;;;;;;;;;;;;;;4959630;28;19918;-74
2023/08/26 03:15:10;;;;;;;;;;;;;;;;;;4941186;28;21935;-74
2023/08/26 03:17:38;;;;;;;;;;;;;;;;;;4943559;28;19925;-73
2023/08/26 03:20:05;;;;;;;;;;;;;;;;;;4933437;28;19917;-73
2023/08/26 03:22:30;;;;;;;;;;;;;;;;;;4946996;28;19946;-74
2023/08/26 03:24:55;;;;;;;;;;;;;;;;;;4942193;28;19922;-74
2023/08/26 03:27:21;;;;;;;;;;;;;;;;;;4945138;28;20369;-74
2023/08/26 03:29:46;;;;;;;;;;;;;;;;;;4960891;28;19980;-73
2023/08/26 03:32:11;;;;;;;;;;;;;;;;;;4961478;28;19922;-74
2023/08/26 03:34:37;;;;;;;;;;;;;;;;;;4942142;28;19922;-74
2023/08/26 03:37:03;;;;;;;;;;;;;;;;;;4975094;28;19945;-73
2023/08/26 03:39:29;;;;;;;;;;;;;;;;;;4945611;28;20305;-73
2023/08/26 03:41:56;;;;;;;;;;;;;;;;;;4980042;28;20013;-72
2023/08/26 03:44:21;;;;;;;;;;;;;;;;;;4961798;28;20500;-72
2023/08/26 03:46:47;;;;;;;;;;;;;;;;;;4963258;28;19925;-72
2023/08/26 03:49:12;;;;;;;;;;;;;;;;;;4946657;28;19933;-73
2023/08/26 03:51:38;;;;;;;;;;;;;;;;;;4979116;28;19921;-72
2023/08/26 03:54:04;;;;;;;;;;;;;;;;;;4974814;28;19984;-72
2023/08/26 03:56:29;;;;;;;;;;;;;;;;;;4965454;28;19942;-74
2023/08/26 03:58:58;;;;;;;;;;;;;;;;;;4965963;28;19965;-74
2023/08/26 04:01:23;;;;;;;;;;;;;;;;;;4944685;28;19921;-74
2023/08/26 04:03:49;;;;;;;;;;;;;;;;;;4963555;28;19928;-73
2023/08/26 04:06:15;;;;;;;;;;;;;;;;;;4961703;28;19925;-74
2023/08/26 04:08:41;;;;;;;;;;;;;;;;;;4948152;28;20020;-73
2023/08/26 04:11:07;;;;;;;;;;;;;;;;;;4962875;28;19929;-74
2023/08/26 04:13:35;;;;;;;;;;;;;;;;;;4977999;28;20370;-74
2023/08/26 04:16:03;;;;;;;;;;;;;;;;;;4977020;28;19928;-74
2023/08/26 04:18:29;;;;;;;;;;;;;;;;;;4960134;28;19922;-74
2023/08/26 04:20:54;;;;;;;;;;;;;;;;;;4961161;28;20656;-74
2023/08/26 04:23:19;;;;;;;;;;;;;;;;;;4977782;28;19929;-74
2023/08/26 04:25:45;;;;;;;;;;;;;;;;;;4980830;28;20381;-74
2023/08/26 04:28:11;;;;;;;;;;;;;;;;;;4979787;28;21108;-75
2023/08/26 04:30:37;;;;;;;;;;;;;;;;;;4979746;28;20396;-75
2023/08/26 04:33:04;;;;;;;;;;;;;;;;;;4953506;28;19922;-74
2023/08/26 04:35:32;;;;;;;;;;;;;;;;;;4961510;28;19967;-73
2023/08/26 04:37:57;;;;;;;;;;;;;;;;;;4978754;28;20008;-73
2023/08/26 04:40:25;;;;;;;;;;;;;;;;;;4962309;28;20040;-73
2023/08/26 04:42:51;;;;;;;;;;;;;;;;;;4978611;28;19937;-74
2023/08/26 04:45:16;;;;;;;;;;;;;;;;;;4962270;28;20488;-73
2023/08/26 04:47:42;;;;;;;;;;;;;;;;;;4944564;28;20538;-74
2023/08/26 04:50:08;;;;;;;;;;;;;;;;;;4947987;28;20012;-74
2023/08/26 04:52:33;;;;;;;;;;;;;;;;;;4955376;28;19922;-74
2023/08/26 04:54:58;;;;;;;;;;;;;;;;;;4976512;28;19922;-74
2023/08/26 04:57:24;;;;;;;;;;;;;;;;;;4961288;28;19929;-74
2023/08/26 04:59:49;;;;;;;;;;;;;;;;;;4960177;28;19977;-74
2023/08/26 05:02:15;;;;;;;;;;;;;;;;;;4979299;28;20472;-74
2023/08/26 05:04:40;;;;;;;;;;;;;;;;;;4951270;28;19917;-74
2023/08/26 05:07:06;;;;;;;;;;;;;;;;;;4977318;28;20011;-74
2023/08/26 05:09:31;;;;;;;;;;;;;;;;;;4962090;28;19921;-73
2023/08/26 05:11:57;;;;;;;;;;;;;;;;;;4962902;28;22212;-73
2023/08/26 05:14:22;;;;;;;;;;;;;;;;;;4960037;28;19924;-73
2023/08/26 05:19:39;;;;;;;;;;;;;;;;;;4974232;28;20641;-73
2023/08/26 05:22:04;;;;;;;;;;;;;;;;;;4960331;28;19925;-73
2023/08/26 05:24:30;;;;;;;;;;;;;;;;;;4968007;28;20456;-74
2023/08/26 05:26:55;;;;;;;;;;;;;;;;;;4973340;28;19972;-73
2023/08/26 05:29:21;;;;;;;;;;;;;;;;;;4973225;28;20007;-73
2023/08/26 05:31:46;;;;;;;;;;;;;;;;;;4959322;28;19926;-73
2023/08/26 05:34:12;;;;;;;;;;;;;;;;;;4962863;28;19921;-74
2023/08/26 05:36:37;;;;;;;;;;;;;;;;;;4959341;28;19930;-73
2023/08/26 05:39:03;;;;;;;;;;;;;;;;;;4978677;28;20026;-72
2023/08/26 05:41:28;;;;;;;;;;;;;;;;;;4960951;28;19922;-74
2023/08/26 05:43:54;;;;;;;;;;;;;;;;;;4980139;28;19968;-73
2023/08/26 05:46:19;;;;;;;;;;;;;;;;;;4976157;28;19921;-73
2023/08/26 05:48:48;;;;;;;;;;;;;;;;;;4978703;28;19952;-72
2023/08/26 05:51:13;;;;;;;;;;;;;;;;;;4949626;28;21881;-72
2023/08/26 05:53:38;;;;;;;;;;;;;;;;;;4965121;28;19918;-72
2023/08/26 05:56:04;;;;;;;;;;;;;;;;;;4977679;28;20660;-72
2023/08/26 05:58:29;;;;;;;;;;;;;;;;;;4966350;28;19944;-72
2023/08/26 06:00:55;;;;;;;;;;;;;;;;;;4962221;28;19921;-72
2023/08/26 06:03:20;;;;;;;;;;;;;;;;;;4956086;28;19929;-72
2023/08/26 06:05:48;;;;;;;;;;;;;;;;;;4962912;28;19980;-72
2023/08/26 06:08:13;;;;;;;;;;;;;;;;;;4955766;28;19917;-72
2023/08/26 06:10:39;;;;;;;;;;;;;;;;;;4955820;28;19926;-72
2023/08/26 06:13:05;;;;;;;;;;;;;;;;;;4962785;28;19917;-73
2023/08/26 06:15:30;;;;;;;;;;;;;;;;;;4941766;28;19953;-72
2023/08/26 06:17:55;;;;;;;;;;;;;;;;;;4956173;28;20495;-73
2023/08/26 06:20:22;;;;;;;;;;;;;;;;;;4963570;28;20512;-73
2023/08/26 06:22:48;;;;;;;;;;;;;;;;;;4972396;28;19918;-73
2023/08/26 06:25:13;;;;;;;;;;;;;;;;;;4963067;28;19980;-73
2023/08/26 06:27:40;;;;;;;;;;;;;;;;;;4979881;28;19921;-73
2023/08/26 06:30:09;;;;;;;;;;;;;;;;;;4952487;28;19956;-73
2023/08/26 06:32:34;;;;;;;;;;;;;;;;;;4977982;28;19929;-74
2023/08/26 06:35:00;;;;;;;;;;;;;;;;;;4963976;28;20016;-73
2023/08/26 06:37:25;;;;;;;;;;;;;;;;;;4936001;28;20157;-74
2023/08/26 06:39:51;;;;;;;;;;;;;;;;;;4934901;28;19922;-73
2023/08/26 06:42:17;;;;;;;;;;;;;;;;;;4935407;28;20826;-73
2023/08/26 06:44:42;;;;;;;;;;;;;;;;;;4961024;28;20074;-74
2023/08/26 06:47:07;;;;;;;;;;;;;;;;;;4948717;28;19918;-74
2023/08/26 06:49:33;;;;;;;;;;;;;;;;;;4959729;28;19922;-74
2023/08/26 06:51:58;;;;;;;;;;;;;;;;;;4943812;28;19969;-74
2023/08/26 06:54:24;;;;;;;;;;;;;;;;;;4949604;28;19941;-73
2023/08/26 06:56:49;;;;;;;;;;;;;;;;;;4946991;28;20005;-75
2023/08/26 06:59:15;;;;;;;;;;;;;;;;;;4947074;28;20346;-74
2023/08/26 07:01:40;;;;;;;;;;;;;;;;;;4950698;28;19925;-75
2023/08/26 07:04:06;;;;;;;;;;;;;;;;;;4944233;28;19929;-76
2023/08/26 07:06:31;;;;;;;;;;;;;;;;;;4960055;28;19922;-77
2023/08/26 07:08:57;;;;;;;;;;;;;;;;;;4961185;28;19942;-79
2023/08/26 07:11:22;;;;;;;;;;;;;;;;;;4960848;28;19926;-78
2023/08/26 07:13:48;;;;;;;;;;;;;;;;;;4948717;28;19918;-79
2023/08/26 07:16:13;;;;;;;;;;;;;;;;;;4949896;28;19925;-79
2023/08/26 07:18:39;;;;;;;;;;;;;;;;;;4965056;28;19962;-80
2023/08/26 07:21:04;;;;;;;;;;;;;;;;;;4949578;28;21862;-77
2023/08/26 07:23:30;;;;;;;;;;;;;;;;;;4963825;28;19918;-77
2023/08/26 07:25:55;;;;;;;;;;;;;;;;;;4964769;28;20364;-79
2023/08/26 07:28:21;;;;;;;;;;;;;;;;;;4965252;28;19922;-79
2023/08/26 07:30:46;;;;;;;;;;;;;;;;;;4937914;28;20824;-79
2023/08/26 07:33:11;;;;;;;;;;;;;;;;;;4964108;28;19921;-79
2023/08/26 07:35:37;;;;;;;;;;;;;;;;;;4943705;28;19922;-78
2023/08/26 07:41:19;;;;;;;;;;;;;;;;;;4975856;28;20372;-77
2023/08/26 07:43:46;;;;;;;;;;;;;;;;;;4981095;28;19972;-75
2023/08/26 07:46:11;;;;;;;;;;;;;;;;;;4962322;28;19918;-76
2023/08/26 07:48:36;;;;;;;;;;;;;;;;;;4965914;28;20004;-76
2023/08/26 07:51:01;;;;;;;;;;;;;;;;;;4960295;28;20020;-75
2023/08/26 07:53:27;;;;;;;;;;;;;;;;;;4980419;28;19991;-73
2023/08/26 07:55:52;;;;;;;;;;;;;;;;;;4960361;28;19918;-75
2023/08/26 07:58:22;;;;;;;;;;;;;;;;;;4962461;28;19917;-71
2023/08/26 08:00:48;;;;;;;;;;;;;;;;;;4979331;28;20032;-70
2023/08/26 08:03:14;;;;;;;;;;;;;;;;;;4979557;28;20048;-71
2023/08/26 08:05:39;;;;;;;;;;;;;;;;;;4962678;28;20021;-71
2023/08/26 08:08:06;;;;;;;;;;;;;;;;;;4980627;28;19976;-71
2023/08/26 08:10:32;;;;;;;;;;;;;;;;;;4965384;28;19926;-69
2023/08/26 08:12:57;;;;;;;;;;;;;;;;;;4961787;28;19964;-70
2023/08/26 08:15:23;;;;;;;;;;;;;;;;;;4980589;28;19961;-70
2023/08/26 08:17:50;;;;;;;;;;;;;;;;;;4980625;28;19972;-71
2023/08/26 08:20:18;;;;;;;;;;;;;;;;;;4979066;28;19995;-73
2023/08/26 08:22:44;;;;;;;;;;;;;;;;;;4952070;28;19965;-69
2023/08/26 08:25:15;;;;;;;;;;;;;;;;;;4958649;28;19918;-70
2023/08/26 08:27:40;;;;;;;;;;;;;;;;;;4963920;28;19932;-70
2023/08/26 08:30:06;;;;;;;;;;;;;;;;;;4978209;28;19922;-69
2023/08/26 08:32:31;;;;;;;;;;;;;;;;;;4967535;28;19921;-69
2023/08/26 08:34:59;;;;;;;;;;;;;;;;;;4969120;28;19969;-68
2023/08/26 08:40:19;;;;;;;;;;;;;;;;;;4978331;28;19987;-69
2023/08/26 08:42:54;;;;;;;;;;;;;;;;;;4960413;28;20033;-69
2023/08/26 08:45:22;;;;;;;;;;;;;;;;;;4952961;28;19928;-68
2023/08/26 08:47:47;;;;;;;;;;;;;;;;;;4951498;28;19926;-69
2023/08/26 08:50:12;;;;;;;;;;;;;;;;;;4977189;28;19922;-69
2023/08/26 08:52:38;;;;;;;;;;;;;;;;;;4979024;28;19921;-69
2023/08/26 08:55:05;;;;;;;;;;;;;;;;;;4976578;28;20097;-68
2023/08/26 08:57:31;;;;;;;;;;;;;;;;;;4950987;28;20003;-68
2023/08/26 08:59:56;;;;;;;;;;;;;;;;;;4951800;28;20059;-68
2023/08/26 09:02:24;;;;;;;;;;;;;;;;;;4960904;28;19931;-69
2023/08/26 09:04:55;;;;;;;;;;;;;;;;;;4963677;28;20361;-68
2023/08/26 09:07:20;;;;;;;;;;;;;;;;;;4952617;28;19945;-70
2023/08/26 09:09:45;;;;;;;;;;;;;;;;;;4958927;28;20001;-68
2023/08/26 09:12:11;;;;;;;;;;;;;;;;;;4979330;28;20529;-68
2023/08/26 09:14:37;;;;;;;;;;;;;;;;;;4979868;28;20710;-69
2023/08/26 09:17:05;;;;;;;;;;;;;;;;;;4950130;28;19918;-67
2023/08/26 09:19:33;;;;;;;;;;;;;;;;;;4948369;28;19940;-68
2023/08/26 09:22:00;;;;;;;;;;;;;;;;;;4978225;28;20537;-67
2023/08/26 09:24:26;;;;;;;;;;;;;;;;;;4978657;28;19984;-69
2023/08/26 09:26:51;;;;;;;;;;;;;;;;;;4976652;28;21144;-68
2023/08/26 09:29:17;;;;;;;;;;;;;;;;;;4978580;28;19921;-67
2023/08/26 09:31:42;;;;;;;;;;;;;;;;;;4951267;28;20047;-68
2023/08/26 09:34:08;;;;;;;;;;;;;;;;;;4979277;28;20041;-69
2023/08/26 09:36:33;;;;;;;;;;;;;;;;;;4961879;28;19930;-68
2023/08/26 09:38:58;;;;;;;;;;;;;;;;;;4948306;28;19921;-68
2023/08/26 09:41:23;;;;;;;;;;;;;;;;;;4950980;28;20005;-66
2023/08/26 09:43:51;;;;;;;;;;;;;;;;;;4969007;28;19976;-69
2023/08/26 09:46:22;;;;;;;;;;;;;;;;;;4960530;28;20672;-68
2023/08/26 09:48:47;;;;;;;;;;;;;;;;;;4962229;28;20473;-68
2023/08/26 09:51:15;;;;;;;;;;;;;;;;;;4961743;28;20016;-69
2023/08/26 09:53:48;;;;;;;;;;;;;;;;;;4964127;28;19918;-73
2023/08/26 09:56:16;;;;;;;;;;;;;;;;;;4963773;28;19955;-67
2023/08/26 09:58:41;;;;;;;;;;;;;;;;;;4961069;28;19922;-69
2023/08/26 10:01:09;;;;;;;;;;;;;;;;;;4971209;28;20026;-69
2023/08/26 10:03:34;;;;;;;;;;;;;;;;;;4942677;28;19983;-69
2023/08/26 10:06:02;;;;;;;;;;;;;;;;;;4976228;28;19921;-68
2023/08/26 10:08:27;;;;;;;;;;;;;;;;;;4982841;28;20025;-69
2023/08/26 10:10:55;;;;;;;;;;;;;;;;;;4953468;28;19921;-68
2023/08/26 10:13:23;;;;;;;;;;;;;;;;;;4968818;28;19918;-70
2023/08/26 10:15:49;;;;;;;;;;;;;;;;;;4970118;28;19952;-70
2023/08/26 10:18:17;;;;;;;;;;;;;;;;;;4965392;28;19925;-72
2023/08/26 10:20:44;;;;;;;;;;;;;;;;;;4977671;28;20016;-78
2023/08/26 10:23:09;;;;;;;;;;;;;;;;;;4975215;28;20044;-78
2023/08/26 10:25:35;;;;;;;;;;;;;;;;;;4967379;28;19993;-73
2023/08/26 10:28:03;;;;;;;;;;;;;;;;;;4984771;28;20021;-77
2023/08/26 10:30:28;;;;;;;;;;;;;;;;;;4969484;28;20442;-74
2023/08/26 10:32:57;;;;;;;;;;;;;;;;;;4955668;28;19918;-72
2023/08/26 10:35:22;;;;;;;;;;;;;;;;;;4957667;28;19941;-75
2023/08/26 10:37:48;;;;;;;;;;;;;;;;;;4955940;28;19930;-76
2023/08/26 10:40:14;;;;;;;;;;;;;;;;;;4965180;28;20019;-71
2023/08/26 10:43:00;;;;;;;;;;;;;;;;;;4966321;28;19928;-71
2023/08/26 10:45:25;;;;;;;;;;;;;;;;;;4954458;28;20393;-72
2023/08/26 10:47:51;;;;;;;;;;;;;;;;;;4961705;28;19927;-70
2023/08/26 10:50:18;;;;;;;;;;;;;;;;;;4962405;28;19932;-72
2023/08/26 10:52:43;;;;;;;;;;;;;;;;;;4967939;28;19921;-71
2023/08/26 10:55:08;;;;;;;;;;;;;;;;;;4952567;28;21382;-70
2023/08/26 10:57:34;;;;;;;;;;;;;;;;;;4966293;28;19925;-72
2023/08/26 11:00:03;;;;;;;;;;;;;;;;;;4979934;28;19921;-72
2023/08/26 11:02:30;;;;;;;;;;;;;;;;;;4979793;28;21953;-72
2023/08/26 11:04:56;;;;;;;;;;;;;;;;;;4970069;28;20821;-71
2023/08/26 11:07:24;;;;;;;;;;;;;;;;;;4962937;28;19922;-74
2023/08/26 11:09:52;;;;;;;;;;;;;;;;;;4981079;28;19921;-73
2023/08/26 11:12:18;;;;;;;;;;;;;;;;;;4982067;28;19971;-74
2023/08/26 11:14:43;;;;;;;;;;;;;;;;;;4982271;28;19921;-74
2023/08/26 11:17:09;;;;;;;;;;;;;;;;;;4952126;28;19933;-76
2023/08/26 11:19:34;;;;;;;;;;;;;;;;;;4973763;28;19918;-76
2023/08/26 11:21:59;;;;;;;;;;;;;;;;;;4964939;28;19921;-72
2023/08/26 11:24:25;;;;;;;;;;;;;;;;;;4955175;28;19928;-75
2023/08/26 11:26:50;;;;;;;;;;;;;;;;;;4980972;28;19932;-74
2023/08/26 11:29:16;;;;;;;;;;;;;;;;;;4964368;28;20059;-75
2023/08/26 11:31:41;;;;;;;;;;;;;;;;;;4983830;28;19926;-77
2023/08/26 11:34:09;;;;;;;;;;;;;;;;;;4971466;28;19956;-72
2023/08/26 11:36:35;;;;;;;;;;;;;;;;;;4974774;28;19922;-77
2023/08/26 11:39:01;;;;;;;;;;;;;;;;;;4927625;28;19922;-73
2023/08/26 11:41:26;;;;;;;;;;;;;;;;;;4960830;28;19922;-74
2023/08/26 11:43:52;;;;;;;;;;;;;;;;;;4960685;28;20478;-71
2023/08/26 11:46:17;;;;;;;;;;;;;;;;;;4940641;28;22151;-71
2023/08/26 11:48:45;;;;;;;;;;;;;;;;;;4961860;28;19933;-73
2023/08/26 11:51:10;;;;;;;;;;;;;;;;;;4941525;28;20009;-73
2023/08/26 11:53:36;;;;;;;;;;;;;;;;;;4947660;28;21875;-71
2023/08/26 11:56:04;;;;;;;;;;;;;;;;;;4942680;28;19997;-74
2023/08/26 11:58:29;;;;;;;;;;;;;;;;;;4960463;28;19985;-73
2023/08/26 12:00:55;;;;;;;;;;;;;;;;;;4956762;28;20374;-71
2023/08/26 12:03:21;;;;;;;;;;;;;;;;;;4958937;28;19922;-72
2023/08/26 12:05:49;;;;;;;;;;;;;;;;;;4958899;28;19926;-74
2023/08/26 12:08:14;;;;;;;;;;;;;;;;;;4939086;28;20479;-72
2023/08/26 12:10:42;;;;;;;;;;;;;;;;;;4942531;28;19926;-72
2023/08/26 12:13:10;;;;;;;;;;;;;;;;;;4943002;28;19922;-70
2023/08/26 12:15:36;;;;;;;;;;;;;;;;;;4958735;28;20368;-71
2023/08/26 12:18:01;;;;;;;;;;;;;;;;;;4958710;28;20831;-70
2023/08/26 12:20:26;;;;;;;;;;;;;;;;;;4939655;28;19918;-70
2023/08/26 12:22:57;;;;;;;;;;;;;;;;;;4943043;28;19972;-74
2023/08/26 12:25:25;;;;;;;;;;;;;;;;;;4958361;28;20712;-72
2023/08/26 12:27:54;;;;;;;;;;;;;;;;;;4958362;28;20411;-69
2023/08/26 12:30:22;;;;;;;;;;;;;;;;;;4939589;28;20000;-73
2023/08/26 12:33:00;;;;;;;;;;;;;;;;;;4940007;28;20001;-69
2023/08/26 12:35:28;;;;;;;;;;;;;;;;;;4957541;28;19922;-70
2023/08/26 12:37:54;;;;;;;;;;;;;;;;;;4952852;28;19932;-69
2023/08/26 12:40:19;;;;;;;;;;;;;;;;;;4979260;28;19929;-75
2023/08/26 12:42:45;;;;;;;;;;;;;;;;;;4945106;28;19943;-73
2023/08/26 12:45:12;;;;;;;;;;;;;;;;;;4953486;28;19978;-71
2023/08/26 12:47:38;;;;;;;;;;;;;;;;;;4979578;28;22015;-71
2023/08/26 12:50:06;;;;;;;;;;;;;;;;;;4961724;28;19973;-70
2023/08/26 12:52:34;;;;;;;;;;;;;;;;;;4968277;28;20055;-69
2023/08/26 12:55:04;;;;;;;;;;;;;;;;;;4964231;28;20590;-74
2023/08/26 12:57:32;;;;;;;;;;;;;;;;;;4980642;28;19928;-70
2023/08/26 13:00:00;;;;;;;;;;;;;;;;;;4961212;28;20076;-70
2023/08/26 13:02:44;;;;;;;;;;;;;;;;;;4991360;27;2015133;-71
2023/08/26 13:05:10;;;;;;;;;;;;;;;;;;5010521;28;19994;-70
2023/08/26 13:07:37;;;;;;;;;;;;;;;;;;5026786;28;19967;-72
2023/08/26 13:10:03;;;;;;;;;;;;;;;;;;5044348;28;19928;-68
2023/08/26 13:12:31;;;;;;;;;;;;;;;;;;5010936;28;20015;-66
2023/08/26 13:15:02;;;;;;;;;;;;;;;;;;5043084;28;19928;-68
2023/08/26 13:17:27;;;;;;;;;;;;;;;;;;5009803;28;19962;-69
2023/08/26 13:19:58;;;;;;;;;;;;;;;;;;5046545;28;19916;-66
2023/08/26 13:22:26;;;;;;;;;;;;;;;;;;5043699;28;19925;-69
2023/08/26 13:24:55;;;;;;;;;;;;;;;;;;5024644;28;19920;-69
2023/08/26 13:27:20;;;;;;;;;;;;;;;;;;5047199;28;19959;-69
2023/08/26 13:29:48;;;;;;;;;;;;;;;;;;5009911;28;20031;-69
2023/08/26 13:32:14;;;;;;;;;;;;;;;;;;5044211;28;19921;-69
2023/08/26 13:34:39;;;;;;;;;;;;;;;;;;5042250;28;19975;-69
2023/08/26 13:37:05;;;;;;;;;;;;;;;;;;5045185;28;19924;-69
2023/08/26 13:42:53;;;;;;;;;;;;;;;;;;5044738;28;21815;-70
2023/08/26 13:45:21;;;;;;;;;;;;;;;;;;5046120;28;19970;-69
2023/08/26 13:47:48;;;;;;;;;;;;;;;;;;5026261;28;19920;-70
2023/08/26 13:50:17;;;;;;;;;;;;;;;;;;5046064;28;20229;-69
2023/08/26 13:52:43;;;;;;;;;;;;;;;;;;5024568;28;19928;-69
2023/08/26 13:55:08;;;;;;;;;;;;;;;;;;5025125;28;19927;-69
2023/08/26 14:00:50;;;;;;;;;;;;;;;;;;5042443;28;19970;-69
2023/08/26 14:03:15;;;;;;;;;;;;;;;;;;5008167;28;19924;-68
2023/08/26 14:05:43;;;;;;;;;;;;;;;;;;5021604;28;19917;-67
2023/08/26 14:08:14;;;;;;;;;;;;;;;;;;5021803;28;20147;-67
2023/08/26 14:10:42;;;;;;;;;;;;;;;;;;5019681;28;20821;-68
2023/08/26 14:13:09;;;;;;;;;;;;;;;;;;5014953;28;19921;-69
2023/08/26 14:15:38;;;;;;;;;;;;;;;;;;5025153;28;19971;-74
2023/08/26 14:18:04;;;;;;;;;;;;;;;;;;4995453;28;19925;-69
2023/08/26 14:20:32;;;;;;;;;;;;;;;;;;5009555;28;19917;-69
2023/08/26 14:23:00;;;;;;;;;;;;;;;;;;5009834;28;19927;-71
2023/08/26 14:25:26;;;;;;;;;;;;;;;;;;5010335;28;19917;-69
2023/08/26 14:27:51;;;;;;;;;;;;;;;;;;5007747;28;20491;-68
2023/08/26 14:30:16;;;;;;;;;;;;;;;;;;4996780;28;20499;-69
2023/08/26 14:32:44;;;;;;;;;;;;;;;;;;5006809;28;20570;-69
2023/08/26 14:35:09;;;;;;;;;;;;;;;;;;5010284;28;19925;-69
2023/08/26 14:37:34;;;;;;;;;;;;;;;;;;4998372;28;19917;-70
2023/08/26 14:40:00;;;;;;;;;;;;;;;;;;5008945;28;20019;-70
2023/08/26 14:42:28;;;;;;;;;;;;;;;;;;5012303;28;19925;-70
2023/08/26 14:44:54;;;;;;;;;;;;;;;;;;4986992;28;19917;-70
2023/08/26 14:47:19;;;;;;;;;;;;;;;;;;5027331;28;20399;-68
2023/08/26 14:49:47;;;;;;;;;;;;;;;;;;5008168;28;19917;-67
2023/08/26 14:52:12;;;;;;;;;;;;;;;;;;5009627;28;19921;-70
2023/08/26 14:54:38;;;;;;;;;;;;;;;;;;5010151;28;19990;-68
2023/08/26 14:57:06;;;;;;;;;;;;;;;;;;5010708;28;19962;-68
2023/08/26 14:59:34;;;;;;;;;;;;;;;;;;5008332;28;20623;-67
2023/08/26 15:02:02;;;;;;;;;;;;;;;;;;4987149;28;19960;-69
2023/08/26 15:04:27;;;;;;;;;;;;;;;;;;4991476;28;20814;-69
2023/08/26 15:06:53;;;;;;;;;;;;;;;;;;5008888;28;21307;-69
2023/08/26 15:09:21;;;;;;;;;;;;;;;;;;5027251;28;19921;-68
2023/08/26 15:11:47;;;;;;;;;;;;;;;;;;5009009;28;19979;-69
2023/08/26 15:14:15;;;;;;;;;;;;;;;;;;5011924;28;20016;-72
2023/08/26 15:16:41;;;;;;;;;;;;;;;;;;4991397;28;19921;-68
2023/08/26 15:19:06;;;;;;;;;;;;;;;;;;4992921;28;19917;-67
2023/08/26 15:21:31;;;;;;;;;;;;;;;;;;5009167;28;19931;-68
2023/08/26 15:23:59;;;;;;;;;;;;;;;;;;5010534;28;19920;-68
2023/08/26 15:26:27;;;;;;;;;;;;;;;;;;4990292;28;19992;-68
2023/08/26 15:28:53;;;;;;;;;;;;;;;;;;4992793;28;19928;-68
2023/08/26 15:31:20;;;;;;;;;;;;;;;;;;5004378;28;19921;-68
2023/08/26 15:33:46;;;;;;;;;;;;;;;;;;4991864;28;19925;-68
2023/08/26 15:36:11;;;;;;;;;;;;;;;;;;5008250;28;20111;-68
2023/08/26 15:38:37;;;;;;;;;;;;;;;;;;4991372;28;19928;-69
2023/08/26 15:41:03;;;;;;;;;;;;;;;;;;5005471;28;19972;-68
2023/08/26 15:43:28;;;;;;;;;;;;;;;;;;5010338;28;19932;-68
2023/08/26 15:45:54;;;;;;;;;;;;;;;;;;5007761;28;20023;-68
2023/08/26 15:48:21;;;;;;;;;;;;;;;;;;5008787;28;19944;-68
2023/08/26 15:50:47;;;;;;;;;;;;;;;;;;5004147;28;20369;-69
2023/08/26 15:53:16;;;;;;;;;;;;;;;;;;5008637;28;19925;-69
2023/08/26 15:55:45;;;;;;;;;;;;;;;;;;5008713;28;19920;-68
2023/08/26 15:58:12;;;;;;;;;;;;;;;;;;4989935;28;20310;-67
2023/08/26 16:00:37;;;;;;;;;;;;;;;;;;5007806;28;19932;-68
2023/08/26 16:03:02;;;;;;;;;;;;;;;;;;5025188;28;20391;-68
2023/08/26 16:05:28;;;;;;;;;;;;;;;;;;4992434;28;19921;-68
2023/08/26 16:07:53;;;;;;;;;;;;;;;;;;4994522;28;19985;-69
2023/08/26 16:10:19;;;;;;;;;;;;;;;;;;5011096;28;19921;-68
2023/08/26 16:12:46;;;;;;;;;;;;;;;;;;5009401;28;19988;-70
2023/08/26 16:15:12;;;;;;;;;;;;;;;;;;5028277;28;19928;-68
2023/08/26 16:17:40;;;;;;;;;;;;;;;;;;5008312;28;19921;-69
2023/08/26 16:20:08;;;;;;;;;;;;;;;;;;5011434;28;20260;-68
2023/08/26 16:22:34;;;;;;;;;;;;;;;;;;5028128;28;20541;-69
2023/08/26 16:24:59;;;;;;;;;;;;;;;;;;5010132;28;19920;-69
2023/08/26 16:27:24;;;;;;;;;;;;;;;;;;5010349;28;20622;-70
2023/08/26 16:29:49;;;;;;;;;;;;;;;;;;5009820;28;19920;-69
2023/08/26 16:32:15;;;;;;;;;;;;;;;;;;5011131;28;19916;-70
2023/08/26 16:34:40;;;;;;;;;;;;;;;;;;5024052;28;19928;-69
2023/08/26 16:37:08;;;;;;;;;;;;;;;;;;5008861;28;19917;-69
2023/08/26 16:39:33;;;;;;;;;;;;;;;;;;5029311;28;19917;-69
2023/08/26 16:42:01;;;;;;;;;;;;;;;;;;5012930;28;20015;-69
2023/08/26 16:44:27;;;;;;;;;;;;;;;;;;4992033;28;19917;-68
2023/08/26 16:46:52;;;;;;;;;;;;;;;;;;5021969;28;20047;-69
2023/08/26 16:49:18;;;;;;;;;;;;;;;;;;5024274;28;19921;-69
2023/08/26 16:51:43;;;;;;;;;;;;;;;;;;5028518;28;20326;-69
2023/08/26 16:54:30;;;;;;;;;;;;;;;;;;5009275;28;19920;-69